Terminal Aerodrome Forecast
Issued by NWS Jackson, MS

Home | Current Version | Previous Version | Text Only | Print | Product List | Glossary On
Versions: 1 2 3 4 5 6 7 8 9 10 11 12
184
FTUS44 KJAN 131132
TAFGWO
TAF
KGWO 131132Z 1312/1412 VRB03KT P6SM SKC
     FM131600 21013G20KT P6SM SKC
     FM140000 21009KT P6SM SKC=

USA.gov is the U.S. government's official web portal to all federal, state and local government web resources and services.